This is the latest recevied weather packets stored in our database for station/object KE8RXN. If no packets are shown the sender has not sent any weather packets the latest 1 day(s).
| Time | Temp. | Humidity | Pressure | Rain* | Wind** | Luminosity | Snow |
|---|---|---|---|---|---|---|---|
| 1778010362 | 12.78° C | 41% | 1011.9 hPa | 0 mm | 1.79 m/s, 256° | 277 W/m² | - |
| 1778010052 | 12.22° C | 43% | 1012.1 hPa | 0 mm | 0.89 m/s, 271° | 584 W/m² | - |
| 1778009750 | 12.22° C | 43% | 1012.1 hPa | 0 mm | 1.34 m/s, 283° | 377 W/m² | - |
| 1778009446 | 11.67° C | 42% | 1012.1 hPa | 0 mm | 1.34 m/s, 321° | 288 W/m² | - |
| 1778009145 | 12.22° C | 41% | 1012.3 hPa | 0 mm | 2.24 m/s, 245° | 315 W/m² | - |
| 1778008842 | 12.78° C | 41% | 1012.5 hPa | 0 mm | 2.24 m/s, 280° | 386 W/m² | - |
| 1778008540 | 12.78° C | 41% | 1011.9 hPa | 0 mm | 2.24 m/s, 329° | 378 W/m² | - |
| 1778008238 | 12.78° C | 41% | 1012 hPa | 0 mm | 2.68 m/s, 275° | 709 W/m² | - |
| 1778007936 | 12.22° C | 42% | 1012 hPa | 0 mm | 1.34 m/s, 308° | 661 W/m² | - |
| 1778007629 | 12.22° C | 41% | 1011.8 hPa | 0 mm | 1.79 m/s, 275° | 311 W/m² | - |
| 1778007326 | 12.78° C | 43% | 1011.8 hPa | 0 mm | 1.34 m/s, 290° | 563 W/m² | - |
| 1778007022 | 12.78° C | 39% | 1011.8 hPa | 0 mm | 3.13 m/s, 210° | 483 W/m² | - |
| 1778006719 | 12.22° C | 41% | 1011.6 hPa | 0 mm | 1.79 m/s, 7° | 534 W/m² | - |
| 1778006416 | 11.67° C | 41% | 1011.8 hPa | 0 mm | 1.34 m/s, 261° | 347 W/m² | - |
| 1778006113 | 11.67° C | 41% | 1011.9 hPa | 0 mm | 1.34 m/s, 259° | 398 W/m² | - |
| 1778005810 | 11.67° C | 41% | 1011.6 hPa | 0 mm | 2.68 m/s, 290° | 361 W/m² | - |
| 1778005506 | 11.67° C | 41% | 1012 hPa | 0 mm | 1.79 m/s, 298° | 364 W/m² | - |
| 1778005203 | 12.22° C | 42% | 1011.6 hPa | 0 mm | 0.45 m/s, 2° | 355 W/m² | - |
| 1778004900 | 12.22° C | 40% | 1012 hPa | 0 mm | 3.13 m/s, 215° | 448 W/m² | - |
| 1778004596 | 12.22° C | 41% | 1011.9 hPa | 0 mm | 1.34 m/s, 270° | 471 W/m² | - |
| 1778004292 | 12.78° C | 41% | 1011.7 hPa | 0 mm | 1.34 m/s, 248° | 508 W/m² | - |
| 1778003990 | 12.22° C | 41% | 1011.7 hPa | 0 mm | 1.79 m/s, 258° | 526 W/m² | - |
| 1778003685 | 12.78° C | 38% | 1011.6 hPa | 0 mm | 2.68 m/s, 263° | 495 W/m² | - |
| 1778003382 | 12.78° C | 38% | 1011.6 hPa | 0 mm | 2.24 m/s, 222° | 505 W/m² | - |
| 1778003079 | 12.78° C | 39% | 1011.3 hPa | 0 mm | 2.24 m/s, 231° | 498 W/m² | - |
* Rain latest hour (hover to see other rain measurements)
** Current wind speed in m/s (hover to see current wind gust speed)